createdAt,value
2022-09-21T00:00:14.448Z,22.85
2022-09-21T00:02:41.333Z,22.10
2022-09-21T00:05:08.701Z,25.77
2022-09-21T00:07:35.560Z,26.55
2022-09-21T00:10:02.419Z,25.05
2022-09-21T00:12:31.589Z,25.25
2022-09-21T00:14:58.726Z,26.20
2022-09-21T00:17:25.656Z,18.15
2022-09-21T00:19:53.200Z,19.85
2022-09-21T00:22:20.054Z,25.42
2022-09-21T00:24:46.894Z,21.58
2022-09-21T00:27:13.809Z,26.40
2022-09-21T00:29:40.745Z,24.23
2022-09-21T00:32:07.627Z,23.77
2022-09-21T00:34:34.459Z,24.80
2022-09-21T00:37:01.491Z,24.55
2022-09-21T00:39:28.480Z,26.15
2022-09-21T00:41:55.380Z,22.73
2022-09-21T00:44:22.168Z,24.48
2022-09-21T00:46:49.804Z,25.95
2022-09-21T00:49:17.261Z,22.35
2022-09-21T00:51:44.533Z,22.75
2022-09-21T00:54:16.744Z,29.33
2022-09-21T00:56:44.704Z,26.02
2022-09-21T00:59:13.436Z,25.65
2022-09-21T01:01:40.273Z,25.52
2022-09-21T01:04:08.854Z,31.08
2022-09-21T01:06:37.429Z,25.40
2022-09-21T01:09:05.015Z,25.52
2022-09-21T01:11:41.160Z,29.40
2022-09-21T01:14:11.006Z,28.05
2022-09-21T01:16:56.570Z,30.20
2022-09-21T01:19:26.640Z,30.75
2022-09-21T01:21:56.230Z,31.58
2022-09-21T01:24:23.287Z,29.33
2022-09-21T01:26:56.264Z,25.67
2022-09-21T01:29:27.669Z,26.73
2022-09-21T01:32:09.425Z,27.10
2022-09-21T01:34:54.603Z,28.00
2022-09-21T01:37:24.638Z,31.60
2022-09-21T01:39:55.320Z,29.75
2022-09-21T01:44:49.767Z,27.23
2022-09-21T01:47:17.350Z,26.52
2022-09-21T01:49:48.454Z,20.33
2022-09-21T01:52:17.762Z,24.85
2022-09-21T01:54:50.747Z,23.77
2022-09-21T01:57:34.667Z,22.85
2022-09-21T02:00:01.775Z,27.27
2022-09-21T02:02:45.118Z,27.40
2022-09-21T02:05:12.860Z,30.23
2022-09-21T02:07:39.843Z,34.53
2022-09-21T02:10:09.838Z,28.38
2022-09-21T02:12:37.734Z,26.40
2022-09-21T02:15:04.923Z,29.77
2022-09-21T02:17:41.461Z,31.25
2022-09-21T02:20:27.369Z,26.83
2022-09-21T02:23:06.341Z,29.13
2022-09-21T02:25:52.569Z,28.83
2022-09-21T02:28:29.073Z,25.80
2022-09-21T02:31:02.536Z,32.28
2022-09-21T02:33:32.844Z,23.20
2022-09-21T02:36:08.491Z,24.13
2022-09-21T02:38:41.468Z,22.60
2022-09-21T02:41:17.089Z,27.55
2022-09-21T02:43:47.092Z,24.23
2022-09-21T02:46:16.361Z,23.33
2022-09-21T02:48:48.636Z,23.70
2022-09-21T02:51:21.321Z,23.48
2022-09-21T02:53:49.854Z,26.98
2022-09-21T02:56:17.292Z,23.27
2022-09-21T02:58:46.912Z,29.08
2022-09-21T03:01:14.881Z,28.70
2022-09-21T03:03:41.832Z,26.35
2022-09-21T03:06:08.706Z,28.63
2022-09-21T03:08:35.547Z,28.00
2022-09-21T03:11:03.080Z,24.85
2022-09-21T03:13:30.372Z,25.95
2022-09-21T03:16:05.856Z,26.50
2022-09-21T03:18:33.383Z,23.52
2022-09-21T03:21:00.445Z,27.10
2022-09-21T03:23:27.308Z,30.90
2022-09-21T03:25:54.787Z,22.75
2022-09-21T03:28:21.947Z,28.42
2022-09-21T03:30:49.664Z,28.90
2022-09-21T03:33:16.897Z,26.95
2022-09-21T03:35:43.836Z,28.48
2022-09-21T03:38:10.963Z,26.48
2022-09-21T03:40:38.028Z,25.48
2022-09-21T03:43:04.917Z,26.23
2022-09-21T03:45:31.884Z,23.48
2022-09-21T03:47:59.387Z,19.35
2022-09-21T03:50:28.394Z,21.33
2022-09-21T03:52:55.903Z,28.98
2022-09-21T03:55:22.851Z,24.73
2022-09-21T03:57:49.675Z,22.00
2022-09-21T04:00:16.769Z,21.65
2022-09-21T04:02:43.660Z,25.30
2022-09-21T04:05:14.776Z,29.10
2022-09-21T04:07:42.574Z,37.00
2022-09-21T04:10:13.117Z,39.13
2022-09-21T04:12:43.000Z,40.88
2022-09-21T04:15:13.868Z,38.50
2022-09-21T04:17:41.440Z,39.05
2022-09-21T04:20:09.354Z,29.45
2022-09-21T04:22:43.393Z,41.00
2022-09-21T04:25:11.043Z,30.08
2022-09-21T04:27:37.984Z,31.45
2022-09-21T04:30:05.521Z,31.48
2022-09-21T04:32:32.618Z,31.60
2022-09-21T04:34:59.511Z,27.38
2022-09-21T04:37:26.577Z,33.20
2022-09-21T04:39:56.046Z,23.60
2022-09-21T04:42:23.449Z,27.63
2022-09-21T04:44:51.534Z,26.10
2022-09-21T04:47:19.541Z,27.70
2022-09-21T04:49:46.364Z,28.77
2022-09-21T04:52:18.326Z,28.23
2022-09-21T04:54:46.283Z,25.38
2022-09-21T04:57:13.780Z,25.30
2022-09-21T04:59:40.814Z,24.52
2022-09-21T05:02:07.718Z,31.02
2022-09-21T05:04:34.571Z,28.23
2022-09-21T05:07:01.472Z,31.58
2022-09-21T05:09:46.620Z,34.92
2022-09-21T05:12:13.461Z,31.83
2022-09-21T05:14:41.195Z,33.60
2022-09-21T05:17:08.199Z,32.72
2022-09-21T05:19:35.126Z,33.65
2022-09-21T05:22:02.275Z,31.92
2022-09-21T05:24:29.191Z,32.28
2022-09-21T05:26:56.157Z,38.58
2022-09-21T05:29:23.182Z,37.15
2022-09-21T05:32:00.073Z,35.83
2022-09-21T05:34:36.866Z,37.95
2022-09-21T05:37:09.988Z,37.72
2022-09-21T05:39:37.107Z,36.67
2022-09-21T05:42:04.200Z,33.45
2022-09-21T05:44:31.260Z,32.67
2022-09-21T05:47:15.552Z,33.60
2022-09-21T05:49:45.337Z,32.60
2022-09-21T05:52:20.545Z,35.17
2022-09-21T05:54:53.502Z,42.35
2022-09-21T05:57:40.684Z,28.33
2022-09-21T06:00:15.742Z,30.23
2022-09-21T06:03:02.793Z,38.45
2022-09-21T06:05:30.204Z,33.50
2022-09-21T06:07:57.159Z,33.88
2022-09-21T06:10:25.264Z,34.00
2022-09-21T06:12:52.212Z,31.00
2022-09-21T06:15:19.108Z,28.92
2022-09-21T06:17:46.128Z,26.70
2022-09-21T06:20:13.080Z,25.48
2022-09-21T06:22:40.211Z,26.02
2022-09-21T06:25:07.434Z,24.63
2022-09-21T06:27:34.472Z,22.85
2022-09-21T06:30:01.341Z,21.52
2022-09-21T06:32:31.241Z,30.30
2022-09-21T06:34:58.232Z,22.00
2022-09-21T06:37:25.137Z,23.15
2022-09-21T06:39:51.952Z,21.60
2022-09-21T06:42:18.817Z,15.38
2022-09-21T06:44:46.606Z,22.38
2022-09-21T06:47:13.557Z,15.45
2022-09-21T06:49:42.544Z,34.20
2022-09-21T06:52:09.846Z,19.55
2022-09-21T06:54:36.966Z,18.25
2022-09-21T06:57:03.965Z,13.60
2022-09-21T06:59:31.149Z,14.88
2022-09-21T07:01:58.769Z,14.32
2022-09-21T07:04:25.879Z,14.57
2022-09-21T07:06:52.776Z,16.95
2022-09-21T07:12:08.107Z,12.20
2022-09-21T07:14:35.018Z,17.65
2022-09-21T07:17:02.537Z,16.20
2022-09-21T07:19:29.467Z,16.25
2022-09-21T07:21:56.413Z,10.13
2022-09-21T07:24:23.446Z,12.70
2022-09-21T07:26:50.656Z,13.98
2022-09-21T07:29:17.474Z,17.60
2022-09-21T07:31:45.286Z,15.73
2022-09-21T07:34:12.377Z,11.90
2022-09-21T07:36:39.281Z,14.00
2022-09-21T07:39:06.322Z,11.10
2022-09-21T07:41:33.366Z,14.00
2022-09-21T07:44:00.225Z,14.73
2022-09-21T07:46:27.180Z,16.33
2022-09-21T07:48:54.796Z,15.25
2022-09-21T07:51:21.690Z,12.10
2022-09-21T07:53:49.086Z,14.63
2022-09-21T07:56:17.197Z,14.80
2022-09-21T07:59:02.980Z,11.65
2022-09-21T08:01:30.320Z,14.82
2022-09-21T08:03:57.816Z,14.10
2022-09-21T08:06:26.165Z,12.93
2022-09-21T08:08:57.531Z,13.57
2022-09-21T08:11:26.164Z,14.13
2022-09-21T08:13:53.893Z,15.50
2022-09-21T08:16:20.976Z,17.95
2022-09-21T08:18:47.946Z,13.90
2022-09-21T08:21:14.757Z,9.48
2022-09-21T08:23:42.873Z,16.95
2022-09-21T08:26:18.856Z,10.65
2022-09-21T08:28:49.154Z,11.10
2022-09-21T08:31:17.280Z,13.07
2022-09-21T08:33:44.243Z,13.82
2022-09-21T08:36:11.326Z,8.55
2022-09-21T08:38:38.953Z,9.27
2022-09-21T08:41:14.862Z,10.50
2022-09-21T08:43:43.317Z,11.45
2022-09-21T08:46:12.168Z,13.02
2022-09-21T08:48:42.194Z,13.93
2022-09-21T08:51:15.965Z,9.65
2022-09-21T08:53:46.794Z,12.40
2022-09-21T08:56:14.600Z,10.73
2022-09-21T08:58:41.923Z,9.82
2022-09-21T09:01:26.359Z,12.75
2022-09-21T09:04:06.070Z,13.00
2022-09-21T09:06:42.338Z,11.60
2022-09-21T09:09:18.422Z,11.38
2022-09-21T09:12:11.010Z,11.95
2022-09-21T09:14:57.297Z,10.82
2022-09-21T09:17:24.131Z,8.35
2022-09-21T09:20:03.285Z,6.47
2022-09-21T09:22:33.328Z,10.65
2022-09-21T09:25:03.906Z,11.35
2022-09-21T09:30:02.128Z,9.77
2022-09-21T09:32:34.055Z,10.20
2022-09-21T09:35:24.012Z,8.35
2022-09-21T09:37:52.241Z,8.07
2022-09-21T09:40:26.695Z,10.52
2022-09-21T09:43:04.956Z,9.05
2022-09-21T09:45:37.445Z,9.43
2022-09-21T09:48:22.772Z,8.07
2022-09-21T09:50:49.742Z,10.32
2022-09-21T09:53:18.993Z,10.73
2022-09-21T09:55:48.011Z,15.63
2022-09-21T09:58:17.938Z,15.05
2022-09-21T10:00:45.745Z,13.43
2022-09-21T10:03:18.050Z,13.68
2022-09-21T10:05:45.471Z,11.60
2022-09-21T10:08:44.577Z,8.57
2022-09-21T10:11:12.502Z,8.38
2022-09-21T10:13:41.580Z,10.05
2022-09-21T10:16:13.594Z,10.43
2022-09-21T10:18:40.467Z,6.35
2022-09-21T10:21:09.164Z,8.48
2022-09-21T10:23:37.456Z,6.43
2022-09-21T10:26:07.772Z,9.23
2022-09-21T10:28:35.147Z,6.53
2022-09-21T10:31:31.475Z,4.32
2022-09-21T10:34:04.615Z,8.18
2022-09-21T10:36:35.725Z,5.95
2022-09-21T10:39:17.761Z,5.10
2022-09-21T10:41:48.586Z,8.52
2022-09-21T10:44:17.041Z,10.43
2022-09-21T10:46:44.870Z,9.02
2022-09-21T10:49:16.555Z,6.55
2022-09-21T10:51:45.859Z,6.38
2022-09-21T10:54:15.794Z,4.43
2022-09-21T10:57:02.869Z,4.57
2022-09-21T10:59:31.174Z,5.43
2022-09-21T11:01:59.508Z,2.78
2022-09-21T11:04:36.817Z,3.00
2022-09-21T11:07:13.041Z,2.90
2022-09-21T11:09:43.111Z,5.25
2022-09-21T11:12:20.733Z,3.45
2022-09-21T11:14:50.456Z,3.83
2022-09-21T11:17:27.134Z,3.00
2022-09-21T11:20:02.151Z,3.95
2022-09-21T11:22:42.561Z,3.60
2022-09-21T11:25:24.943Z,4.93
2022-09-21T11:27:54.692Z,6.15
2022-09-21T11:30:22.022Z,4.50
2022-09-21T11:33:01.160Z,5.97
2022-09-21T11:35:33.980Z,8.40
2022-09-21T11:38:00.814Z,3.55
2022-09-21T11:40:33.914Z,3.70
2022-09-21T11:43:27.100Z,7.00
2022-09-21T11:45:57.743Z,7.65
2022-09-21T11:51:05.667Z,5.80
2022-09-21T11:53:38.733Z,11.85
2022-09-21T11:56:25.433Z,4.65
2022-09-21T11:59:07.231Z,5.15
2022-09-21T12:01:40.433Z,5.85
2022-09-21T12:04:27.670Z,5.45
2022-09-21T12:07:03.524Z,7.50
2022-09-21T12:09:40.136Z,4.85
2022-09-21T12:12:06.962Z,5.70
2022-09-21T12:14:40.052Z,3.97
2022-09-21T12:17:09.939Z,7.38
2022-09-21T12:19:37.000Z,7.43
2022-09-21T12:22:08.833Z,7.63
2022-09-21T12:24:39.168Z,12.60
2022-09-21T12:27:24.422Z,10.65
2022-09-21T12:29:53.671Z,6.57
2022-09-21T12:32:39.469Z,7.97
2022-09-21T12:35:09.808Z,11.02
2022-09-21T12:37:45.267Z,9.70
2022-09-21T12:40:31.142Z,10.25
2022-09-21T12:43:02.072Z,7.15
2022-09-21T12:45:32.931Z,9.43
2022-09-21T12:48:06.250Z,13.90
2022-09-21T12:50:44.995Z,6.35
2022-09-21T12:53:19.079Z,10.43
2022-09-21T12:55:53.359Z,7.43
2022-09-21T12:58:39.021Z,5.20
2022-09-21T13:01:12.384Z,9.43
2022-09-21T13:03:48.024Z,11.20
2022-09-21T13:06:39.084Z,9.02
2022-09-21T13:09:09.993Z,9.60
2022-09-21T13:11:50.351Z,11.27
2022-09-21T13:14:18.478Z,6.60
2022-09-21T13:16:53.946Z,6.50
2022-09-21T13:19:25.571Z,6.68
2022-09-21T13:22:13.708Z,5.43
2022-09-21T13:24:42.645Z,7.63
2022-09-21T13:27:09.583Z,4.95
2022-09-21T13:29:38.237Z,6.70
2022-09-21T13:32:14.491Z,5.07
2022-09-21T13:34:42.770Z,4.65
2022-09-21T13:37:16.877Z,6.78
2022-09-21T13:39:44.949Z,12.00
2022-09-21T13:42:30.633Z,4.78
2022-09-21T13:44:58.612Z,6.43
2022-09-21T13:47:30.283Z,9.70
2022-09-21T13:50:00.699Z,6.45
2022-09-21T13:52:30.743Z,4.38
2022-09-21T13:55:00.970Z,7.13
2022-09-21T13:57:32.418Z,8.68
2022-09-21T14:00:02.486Z,5.68
2022-09-21T14:02:41.862Z,8.85
2022-09-21T14:05:15.577Z,6.95
2022-09-21T14:07:43.192Z,8.82
2022-09-21T14:10:10.657Z,9.45
2022-09-21T14:12:45.946Z,7.93
2022-09-21T14:15:19.837Z,9.43
2022-09-21T14:18:07.967Z,9.93
2022-09-21T14:20:39.602Z,14.50
2022-09-21T14:23:16.568Z,15.27
2022-09-21T14:25:56.903Z,9.63
2022-09-21T14:28:36.766Z,12.20
2022-09-21T14:31:16.658Z,12.30
2022-09-21T14:33:49.596Z,7.78
2022-09-21T14:36:19.933Z,7.70
2022-09-21T14:38:55.374Z,10.30
2022-09-21T14:41:23.881Z,7.18
2022-09-21T14:43:53.943Z,12.95
2022-09-21T14:46:21.144Z,10.77
2022-09-21T14:49:09.111Z,10.75
2022-09-21T14:51:42.971Z,10.50
2022-09-21T14:54:43.328Z,16.17
2022-09-21T14:57:11.539Z,9.68
2022-09-21T14:59:42.086Z,8.70
2022-09-21T15:02:21.548Z,10.95
2022-09-21T15:04:54.550Z,10.05
2022-09-21T15:07:43.811Z,9.32
2022-09-21T15:10:41.266Z,11.65
2022-09-21T15:13:20.562Z,10.43
2022-09-21T15:15:48.169Z,8.98
2022-09-21T15:18:20.612Z,7.30
2022-09-21T15:21:02.005Z,11.18
2022-09-21T15:23:31.808Z,9.55
2022-09-21T15:26:03.983Z,9.85
2022-09-21T15:28:57.859Z,13.32
2022-09-21T15:31:23.390Z,14.27
2022-09-21T15:33:53.186Z,8.80
2022-09-21T15:36:28.312Z,6.82
2022-09-21T15:39:00.321Z,9.77
2022-09-21T15:41:45.387Z,12.70
2022-09-21T15:44:40.232Z,9.82
2022-09-21T15:47:08.681Z,12.15
2022-09-21T15:49:41.590Z,6.70
2022-09-21T15:52:24.412Z,10.90
2022-09-21T15:54:59.621Z,7.55
2022-09-21T15:57:36.584Z,8.88
2022-09-21T16:00:06.797Z,8.73
2022-09-21T16:02:37.173Z,9.00
2022-09-21T16:05:05.185Z,7.05
2022-09-21T16:07:34.131Z,7.82
2022-09-21T16:10:02.080Z,6.70
2022-09-21T16:12:41.122Z,10.00
2022-09-21T16:15:23.666Z,7.80
2022-09-21T16:17:55.209Z,9.23
2022-09-21T16:20:24.062Z,12.70
2022-09-21T16:22:55.009Z,10.95
2022-09-21T16:25:24.260Z,12.55
2022-09-21T16:27:58.811Z,13.00
2022-09-21T16:30:49.071Z,9.80
2022-09-21T16:33:36.887Z,8.77
2022-09-21T16:36:05.387Z,17.75
2022-09-21T16:38:33.828Z,11.30
2022-09-21T16:41:02.262Z,9.68
2022-09-21T16:43:30.033Z,8.90
2022-09-21T16:45:57.337Z,13.40
2022-09-21T16:48:24.234Z,11.38
2022-09-21T16:50:54.205Z,17.48
2022-09-21T16:53:24.558Z,11.85
2022-09-21T16:55:55.005Z,7.30
2022-09-21T16:58:22.538Z,12.00
2022-09-21T17:00:55.681Z,17.33
2022-09-21T17:03:23.385Z,13.27
2022-09-21T17:05:50.699Z,9.70
2022-09-21T17:08:18.009Z,8.52
2022-09-21T17:10:49.032Z,11.10
2022-09-21T17:13:17.526Z,15.75
2022-09-21T17:15:47.699Z,11.25
2022-09-21T17:18:14.843Z,14.60
2022-09-21T17:20:43.405Z,16.58
2022-09-21T17:23:11.060Z,11.50
2022-09-21T17:25:38.279Z,16.05
2022-09-21T17:28:12.570Z,9.98
2022-09-21T17:30:42.309Z,11.73
2022-09-21T17:33:10.815Z,13.10
2022-09-21T17:35:41.611Z,11.23
2022-09-21T17:38:13.898Z,9.48
2022-09-21T17:40:42.783Z,9.82
2022-09-21T17:43:29.259Z,11.60
2022-09-21T17:45:59.378Z,13.75
2022-09-21T17:48:29.565Z,12.13
2022-09-21T17:51:00.811Z,9.15
2022-09-21T17:53:34.745Z,10.38
2022-09-21T17:56:14.819Z,9.48
2022-09-21T17:59:05.639Z,11.82
2022-09-21T18:04:00.850Z,4.75
2022-09-21T18:06:28.790Z,5.15
2022-09-21T18:08:56.432Z,6.40
2022-09-21T18:11:33.932Z,5.05
2022-09-21T18:14:20.461Z,5.38
2022-09-21T18:16:47.503Z,4.07
2022-09-21T18:19:14.733Z,3.65
2022-09-21T18:21:44.248Z,5.28
2022-09-21T18:24:11.346Z,9.63
2022-09-21T18:26:40.975Z,7.45
2022-09-21T18:29:37.885Z,8.90
2022-09-21T18:32:15.323Z,8.15
2022-09-21T18:34:51.417Z,8.52
2022-09-21T18:37:37.322Z,6.82
2022-09-21T18:40:04.887Z,9.02
2022-09-21T18:42:40.452Z,10.27
2022-09-21T18:45:20.221Z,7.28
2022-09-21T18:47:55.153Z,9.35
2022-09-21T18:50:24.865Z,8.73
2022-09-21T18:53:02.053Z,11.97
2022-09-21T18:55:31.427Z,8.80
2022-09-21T18:57:58.968Z,12.95
2022-09-21T19:00:31.705Z,10.20
2022-09-21T19:03:16.525Z,11.40
2022-09-21T19:06:05.101Z,13.90
2022-09-21T19:09:10.571Z,12.43
2022-09-21T19:11:40.471Z,10.10
2022-09-21T19:14:27.757Z,11.03
2022-09-21T19:17:05.096Z,13.68
2022-09-21T19:19:38.262Z,12.38
2022-09-21T19:22:12.312Z,11.45
2022-09-21T19:25:03.064Z,9.73
2022-09-21T19:27:40.714Z,11.77
2022-09-21T19:30:14.716Z,12.35
2022-09-21T19:32:49.090Z,17.23
2022-09-21T19:35:21.075Z,13.95
2022-09-21T19:37:48.787Z,11.25
2022-09-21T19:40:19.491Z,18.27
2022-09-21T19:45:27.202Z,13.60
2022-09-21T19:47:54.965Z,14.60
2022-09-21T19:50:30.162Z,12.68
2022-09-21T19:53:17.186Z,17.10
2022-09-21T19:56:03.122Z,10.48
2022-09-21T19:58:48.511Z,11.20
2022-09-21T20:01:18.126Z,15.15
2022-09-21T20:03:46.230Z,12.18
2022-09-21T20:06:32.167Z,17.50
2022-09-21T20:09:05.547Z,18.23
2022-09-21T20:11:38.898Z,11.13
2022-09-21T20:14:21.238Z,14.00
2022-09-21T20:16:48.563Z,16.92
2022-09-21T20:19:17.086Z,13.65
2022-09-21T20:21:45.233Z,12.63
2022-09-21T20:24:32.303Z,11.55
2022-09-21T20:26:59.498Z,11.32
2022-09-21T20:29:26.922Z,11.10
2022-09-21T20:31:53.935Z,9.57
2022-09-21T20:34:21.059Z,11.23
2022-09-21T20:36:48.065Z,11.55
2022-09-21T20:39:15.144Z,12.40
2022-09-21T20:41:42.293Z,12.25
2022-09-21T20:44:11.482Z,10.98
2022-09-21T20:46:38.290Z,11.50
2022-09-21T20:49:05.555Z,13.90
2022-09-21T20:51:34.045Z,11.90
2022-09-21T20:54:02.441Z,10.60
2022-09-21T20:56:30.504Z,9.65
2022-09-21T20:58:57.382Z,10.73
2022-09-21T21:01:24.689Z,9.57
2022-09-21T21:03:51.802Z,10.95
2022-09-21T21:06:18.984Z,10.00
2022-09-21T21:08:46.348Z,13.48
2022-09-21T21:11:14.578Z,11.65
2022-09-21T21:13:42.771Z,11.32
2022-09-21T21:16:12.424Z,12.43
2022-09-21T21:18:40.487Z,10.63
2022-09-21T21:21:07.447Z,11.77
2022-09-21T21:23:54.544Z,10.18
2022-09-21T21:26:33.356Z,15.63
2022-09-21T21:29:08.842Z,9.30
2022-09-21T21:31:35.844Z,13.00
2022-09-21T21:34:02.770Z,12.98
2022-09-21T21:36:29.649Z,11.60
2022-09-21T21:38:56.576Z,14.68
2022-09-21T21:41:23.624Z,17.30
2022-09-21T21:43:50.528Z,12.80
2022-09-21T21:46:17.502Z,13.07
2022-09-21T21:48:45.839Z,14.07
2022-09-21T21:51:12.921Z,17.60
2022-09-21T21:53:40.041Z,16.50
2022-09-21T21:56:10.171Z,11.15
2022-09-21T21:58:37.628Z,14.98
2022-09-21T22:01:11.993Z,10.38
2022-09-21T22:03:39.713Z,12.95
2022-09-21T22:06:07.673Z,13.20
2022-09-21T22:08:35.373Z,10.90
2022-09-21T22:11:02.572Z,10.75
2022-09-21T22:13:34.805Z,11.50
2022-09-21T22:16:08.995Z,14.20
2022-09-21T22:18:36.495Z,16.05
2022-09-21T22:21:04.887Z,16.67
2022-09-21T22:23:32.328Z,12.32
2022-09-21T22:26:04.337Z,13.02
2022-09-21T22:28:32.276Z,11.80
2022-09-21T22:30:59.925Z,14.73
2022-09-21T22:33:33.181Z,10.88
2022-09-21T22:36:04.884Z,11.38
2022-09-21T22:38:32.747Z,13.52
2022-09-21T22:41:04.163Z,10.23
2022-09-21T22:43:31.260Z,10.95
2022-09-21T22:45:58.450Z,13.40
2022-09-21T22:48:25.657Z,11.70
2022-09-21T22:50:52.838Z,10.27
2022-09-21T22:53:20.251Z,10.60
2022-09-21T22:55:47.637Z,10.40
2022-09-21T22:58:14.713Z,11.45
2022-09-21T23:00:42.266Z,10.25
2022-09-21T23:03:09.457Z,10.30
2022-09-21T23:05:36.364Z,11.40
2022-09-21T23:08:03.357Z,13.95
2022-09-21T23:10:30.261Z,13.23
2022-09-21T23:12:58.248Z,12.80
2022-09-21T23:15:25.176Z,12.88
2022-09-21T23:17:52.092Z,12.75
2022-09-21T23:20:19.468Z,9.95
2022-09-21T23:22:46.314Z,11.57
2022-09-21T23:25:13.145Z,9.13
2022-09-21T23:27:40.075Z,10.68
2022-09-21T23:30:09.077Z,10.07
2022-09-21T23:32:36.020Z,10.70
2022-09-21T23:35:03.032Z,8.35
2022-09-21T23:37:30.581Z,11.80
2022-09-21T23:39:57.469Z,8.95
2022-09-21T23:42:24.566Z,10.50
2022-09-21T23:44:51.485Z,11.43
2022-09-21T23:47:18.400Z,11.10
2022-09-21T23:49:45.256Z,12.32
2022-09-21T23:52:12.214Z,8.15
2022-09-21T23:54:39.469Z,9.95
2022-09-21T23:57:06.399Z,10.63
2022-09-21T23:59:33.320Z,10.25
